<?xml version="1.0" encoding="UTF-8" standalone="no" ?>
<gpx xmlns="http://www.topografix.com/GPX/1/1" xmlns:xsi="http://www.w3.org/2001/XMLSchema-instance" xsi:schemaLocation="http://www.topografix.com/GPX/1/1 http://www.topografix.com/GPX/1/1/gpx.xsd" version="1.1" creator="VisuGPX - https://www.visugpx.com">
  <metadata>
    <name>COLMIANE STATION CAIRE GROS 14 KM 780 M</name>
    <desc><![CDATA[COLMIANE STATION CAIRE GROS
14 KM 780 M
IGN 3741 OT
 L 357 600. L 4881 200]]></desc>
  </metadata>
  <trk>
    <name><![CDATA[--Saint-Martin-Vésubie-- OR-5419179:COLMIANE CAIRE GROS]]></name>
    <trkseg>
      <trkpt lat="44.07132" lon="7.22083">
        <ele>1509</ele>
        <time>2015-11-01T21:18:14Z</time>
      </trkpt>
      <trkpt lat="44.07106" lon="7.22032">
        <ele>1512</ele>
        <time>2015-11-01T21:20:14Z</time>
      </trkpt>
      <trkpt lat="44.07092" lon="7.21972">
        <ele>1511</ele>
        <time>2015-11-01T21:22:14Z</time>
      </trkpt>
      <trkpt lat="44.07069" lon="7.21924">
        <ele>1515</ele>
        <time>2015-11-01T21:24:14Z</time>
      </trkpt>
      <trkpt lat="44.07033" lon="7.21869">
        <ele>1515</ele>
        <time>2015-11-01T21:26:14Z</time>
      </trkpt>
      <trkpt lat="44.06987" lon="7.21821">
        <ele>1515</ele>
        <time>2015-11-01T21:28:14Z</time>
      </trkpt>
      <trkpt lat="44.06933" lon="7.21796">
        <ele>1516</ele>
        <time>2015-11-01T21:30:14Z</time>
      </trkpt>
      <trkpt lat="44.06864" lon="7.21787">
        <ele>1520</ele>
        <time>2015-11-01T21:32:14Z</time>
      </trkpt>
      <trkpt lat="44.06796" lon="7.21787">
        <ele>1520</ele>
        <time>2015-11-01T21:34:14Z</time>
      </trkpt>
      <trkpt lat="44.06733" lon="7.21785">
        <ele>1512</ele>
        <time>2015-11-01T21:36:14Z</time>
      </trkpt>
      <trkpt lat="44.06679" lon="7.21821">
        <ele>1516</ele>
        <time>2015-11-01T21:38:14Z</time>
      </trkpt>
      <trkpt lat="44.06642" lon="7.21862">
        <ele>1527</ele>
        <time>2015-11-01T21:40:14Z</time>
      </trkpt>
      <trkpt lat="44.06592" lon="7.21866">
        <ele>1526</ele>
        <time>2015-11-01T21:42:14Z</time>
      </trkpt>
      <trkpt lat="44.06585" lon="7.21755">
        <ele>1515</ele>
        <time>2015-11-01T21:44:14Z</time>
      </trkpt>
      <trkpt lat="44.06596" lon="7.21684">
        <ele>1507</ele>
        <time>2015-11-01T21:46:14Z</time>
      </trkpt>
      <trkpt lat="44.066" lon="7.21615">
        <ele>1501</ele>
        <time>2015-11-01T21:48:14Z</time>
      </trkpt>
      <trkpt lat="44.06586" lon="7.21525">
        <ele>1495</ele>
        <time>2015-11-01T21:50:14Z</time>
      </trkpt>
      <trkpt lat="44.06555" lon="7.21414">
        <ele>1492</ele>
        <time>2015-11-01T21:52:14Z</time>
      </trkpt>
      <trkpt lat="44.06546" lon="7.21321">
        <ele>1485</ele>
        <time>2015-11-01T21:54:14Z</time>
      </trkpt>
      <trkpt lat="44.06535" lon="7.21242">
        <ele>1478</ele>
        <time>2015-11-01T21:56:14Z</time>
      </trkpt>
      <trkpt lat="44.06497" lon="7.21178">
        <ele>1483</ele>
        <time>2015-11-01T21:58:14Z</time>
      </trkpt>
      <trkpt lat="44.06457" lon="7.21094">
        <ele>1476</ele>
        <time>2015-11-01T22:00:14Z</time>
      </trkpt>
      <trkpt lat="44.06409" lon="7.21025">
        <ele>1475</ele>
        <time>2015-11-01T22:02:14Z</time>
      </trkpt>
      <trkpt lat="44.06366" lon="7.21006">
        <ele>1474</ele>
        <time>2015-11-01T22:04:14Z</time>
      </trkpt>
      <trkpt lat="44.06323" lon="7.21032">
        <ele>1486</ele>
        <time>2015-11-01T22:06:14Z</time>
      </trkpt>
      <trkpt lat="44.06252" lon="7.20987">
        <ele>1485</ele>
        <time>2015-11-01T22:08:14Z</time>
      </trkpt>
      <trkpt lat="44.06192" lon="7.20952">
        <ele>1480</ele>
        <time>2015-11-01T22:10:14Z</time>
      </trkpt>
      <trkpt lat="44.0613" lon="7.20918">
        <ele>1477</ele>
        <time>2015-11-01T22:12:14Z</time>
      </trkpt>
      <trkpt lat="44.06084" lon="7.2086">
        <ele>1468</ele>
        <time>2015-11-01T22:14:14Z</time>
      </trkpt>
      <trkpt lat="44.06053" lon="7.20836">
        <ele>1460</ele>
        <time>2015-11-01T22:16:14Z</time>
      </trkpt>
      <trkpt lat="44.06053" lon="7.20794">
        <ele>1454</ele>
        <time>2015-11-01T22:18:14Z</time>
      </trkpt>
      <trkpt lat="44.06091" lon="7.2071">
        <ele>1446</ele>
        <time>2015-11-01T22:20:14Z</time>
      </trkpt>
      <trkpt lat="44.0611" lon="7.2065">
        <ele>1434</ele>
        <time>2015-11-01T22:22:14Z</time>
      </trkpt>
      <trkpt lat="44.06088" lon="7.20624">
        <ele>1432</ele>
        <time>2015-11-01T22:24:14Z</time>
      </trkpt>
      <trkpt lat="44.06045" lon="7.20656">
        <ele>1429</ele>
        <time>2015-11-01T22:26:14Z</time>
      </trkpt>
      <trkpt lat="44.06002" lon="7.20729">
        <ele>1437</ele>
        <time>2015-11-01T22:28:14Z</time>
      </trkpt>
      <trkpt lat="44.05976" lon="7.2077">
        <ele>1437</ele>
        <time>2015-11-01T22:30:14Z</time>
      </trkpt>
      <trkpt lat="44.05945" lon="7.20836">
        <ele>1441</ele>
        <time>2015-11-01T22:32:14Z</time>
      </trkpt>
      <trkpt lat="44.05895" lon="7.20875">
        <ele>1445</ele>
        <time>2015-11-01T22:34:14Z</time>
      </trkpt>
      <trkpt lat="44.0586" lon="7.20927">
        <ele>1460</ele>
        <time>2015-11-01T22:36:14Z</time>
      </trkpt>
      <trkpt lat="44.05838" lon="7.20922">
        <ele>1458</ele>
        <time>2015-11-01T22:38:14Z</time>
      </trkpt>
      <trkpt lat="44.05832" lon="7.20836">
        <ele>1440</ele>
        <time>2015-11-01T22:40:14Z</time>
      </trkpt>
      <trkpt lat="44.05828" lon="7.20783">
        <ele>1429</ele>
        <time>2015-11-01T22:42:14Z</time>
      </trkpt>
      <trkpt lat="44.05783" lon="7.20785">
        <ele>1431</ele>
        <time>2015-11-01T22:44:14Z</time>
      </trkpt>
      <trkpt lat="44.05709" lon="7.20796">
        <ele>1449</ele>
        <time>2015-11-01T22:46:14Z</time>
      </trkpt>
      <trkpt lat="44.05673" lon="7.20774">
        <ele>1452</ele>
        <time>2015-11-01T22:48:14Z</time>
      </trkpt>
      <trkpt lat="44.05643" lon="7.20774">
        <ele>1461</ele>
        <time>2015-11-01T22:50:14Z</time>
      </trkpt>
      <trkpt lat="44.05629" lon="7.20748">
        <ele>1460</ele>
        <time>2015-11-01T22:52:14Z</time>
      </trkpt>
      <trkpt lat="44.05666" lon="7.20688">
        <ele>1451</ele>
        <time>2015-11-01T22:54:14Z</time>
      </trkpt>
      <trkpt lat="44.05669" lon="7.20585">
        <ele>1459</ele>
        <time>2015-11-01T22:56:14Z</time>
      </trkpt>
      <trkpt lat="44.05677" lon="7.205">
        <ele>1457</ele>
        <time>2015-11-01T22:58:14Z</time>
      </trkpt>
      <trkpt lat="44.05623" lon="7.2042">
        <ele>1468</ele>
        <time>2015-11-01T23:00:14Z</time>
      </trkpt>
      <trkpt lat="44.05652" lon="7.20519">
        <ele>1469</ele>
        <time>2015-11-01T23:02:14Z</time>
      </trkpt>
      <trkpt lat="44.05638" lon="7.20534">
        <ele>1477</ele>
        <time>2015-11-01T23:04:14Z</time>
      </trkpt>
      <trkpt lat="44.05604" lon="7.20437">
        <ele>1480</ele>
        <time>2015-11-01T23:06:14Z</time>
      </trkpt>
      <trkpt lat="44.0553" lon="7.20358">
        <ele>1495</ele>
        <time>2015-11-01T23:08:14Z</time>
      </trkpt>
      <trkpt lat="44.05458" lon="7.20274">
        <ele>1510</ele>
        <time>2015-11-01T23:10:14Z</time>
      </trkpt>
      <trkpt lat="44.05445" lon="7.20218">
        <ele>1507</ele>
        <time>2015-11-01T23:12:14Z</time>
      </trkpt>
      <trkpt lat="44.05433" lon="7.20203">
        <ele>1511</ele>
        <time>2015-11-01T23:14:14Z</time>
      </trkpt>
      <trkpt lat="44.05436" lon="7.20169">
        <ele>1502</ele>
        <time>2015-11-01T23:16:14Z</time>
      </trkpt>
      <trkpt lat="44.05388" lon="7.20045">
        <ele>1514</ele>
        <time>2015-11-01T23:18:14Z</time>
      </trkpt>
      <trkpt lat="44.05373" lon="7.19989">
        <ele>1513</ele>
        <time>2015-11-01T23:20:14Z</time>
      </trkpt>
      <trkpt lat="44.05345" lon="7.19974">
        <ele>1525</ele>
        <time>2015-11-01T23:22:14Z</time>
      </trkpt>
      <trkpt lat="44.05345" lon="7.19922">
        <ele>1517</ele>
        <time>2015-11-01T23:24:14Z</time>
      </trkpt>
      <trkpt lat="44.05317" lon="7.19847">
        <ele>1529</ele>
        <time>2015-11-01T23:26:14Z</time>
      </trkpt>
      <trkpt lat="44.05316" lon="7.19809">
        <ele>1530</ele>
        <time>2015-11-01T23:28:14Z</time>
      </trkpt>
      <trkpt lat="44.05305" lon="7.19768">
        <ele>1539</ele>
        <time>2015-11-01T23:30:14Z</time>
      </trkpt>
      <trkpt lat="44.05331" lon="7.19648">
        <ele>1534</ele>
        <time>2015-11-01T23:32:14Z</time>
      </trkpt>
      <trkpt lat="44.05271" lon="7.19519">
        <ele>1548</ele>
        <time>2015-11-01T23:34:14Z</time>
      </trkpt>
      <trkpt lat="44.05229" lon="7.19437">
        <ele>1556</ele>
        <time>2015-11-01T23:36:14Z</time>
      </trkpt>
      <trkpt lat="44.05186" lon="7.19334">
        <ele>1568</ele>
        <time>2015-11-01T23:38:14Z</time>
      </trkpt>
      <trkpt lat="44.05144" lon="7.19261">
        <ele>1587</ele>
        <time>2015-11-01T23:40:14Z</time>
      </trkpt>
      <trkpt lat="44.05118" lon="7.19229">
        <ele>1601</ele>
        <time>2015-11-01T23:42:14Z</time>
      </trkpt>
      <trkpt lat="44.05094" lon="7.19171">
        <ele>1614</ele>
        <time>2015-11-01T23:44:14Z</time>
      </trkpt>
      <trkpt lat="44.05066" lon="7.19107">
        <ele>1635</ele>
        <time>2015-11-01T23:46:14Z</time>
      </trkpt>
      <trkpt lat="44.05055" lon="7.19049">
        <ele>1648</ele>
        <time>2015-11-01T23:48:14Z</time>
      </trkpt>
      <trkpt lat="44.05035" lon="7.19055">
        <ele>1662</ele>
        <time>2015-11-01T23:50:14Z</time>
      </trkpt>
      <trkpt lat="44.05033" lon="7.19038">
        <ele>1665</ele>
        <time>2015-11-01T23:52:14Z</time>
      </trkpt>
      <trkpt lat="44.0501" lon="7.19043">
        <ele>1681</ele>
        <time>2015-11-01T23:54:14Z</time>
      </trkpt>
      <trkpt lat="44.05018" lon="7.18998">
        <ele>1680</ele>
        <time>2015-11-01T23:56:14Z</time>
      </trkpt>
      <trkpt lat="44.04989" lon="7.19019">
        <ele>1696</ele>
        <time>2015-11-01T23:58:14Z</time>
      </trkpt>
      <trkpt lat="44.05033" lon="7.1892">
        <ele>1683</ele>
        <time>2015-11-02T00:00:14Z</time>
      </trkpt>
      <trkpt lat="44.04964" lon="7.18963">
        <ele>1714</ele>
        <time>2015-11-02T00:02:14Z</time>
      </trkpt>
      <trkpt lat="44.04973" lon="7.18892">
        <ele>1718</ele>
        <time>2015-11-02T00:04:14Z</time>
      </trkpt>
      <trkpt lat="44.0493" lon="7.18922">
        <ele>1730</ele>
        <time>2015-11-02T00:06:14Z</time>
      </trkpt>
      <trkpt lat="44.04939" lon="7.18862">
        <ele>1728</ele>
        <time>2015-11-02T00:08:14Z</time>
      </trkpt>
      <trkpt lat="44.04922" lon="7.18845">
        <ele>1731</ele>
        <time>2015-11-02T00:10:14Z</time>
      </trkpt>
      <trkpt lat="44.04909" lon="7.1888">
        <ele>1732</ele>
        <time>2015-11-02T00:12:14Z</time>
      </trkpt>
      <trkpt lat="44.04882" lon="7.1894">
        <ele>1734</ele>
        <time>2015-11-02T00:14:14Z</time>
      </trkpt>
      <trkpt lat="44.04864" lon="7.19015">
        <ele>1743</ele>
        <time>2015-11-02T00:16:14Z</time>
      </trkpt>
      <trkpt lat="44.04859" lon="7.19096">
        <ele>1756</ele>
        <time>2015-11-02T00:18:14Z</time>
      </trkpt>
      <trkpt lat="44.04822" lon="7.19182">
        <ele>1775</ele>
        <time>2015-11-02T00:20:14Z</time>
      </trkpt>
      <trkpt lat="44.04802" lon="7.193">
        <ele>1783</ele>
        <time>2015-11-02T00:22:14Z</time>
      </trkpt>
      <trkpt lat="44.04813" lon="7.19429">
        <ele>1796</ele>
        <time>2015-11-02T00:24:14Z</time>
      </trkpt>
      <trkpt lat="44.04818" lon="7.19562">
        <ele>1809</ele>
        <time>2015-11-02T00:26:14Z</time>
      </trkpt>
      <trkpt lat="44.04816" lon="7.19661">
        <ele>1821</ele>
        <time>2015-11-02T00:28:14Z</time>
      </trkpt>
      <trkpt lat="44.04799" lon="7.19744">
        <ele>1831</ele>
        <time>2015-11-02T00:30:14Z</time>
      </trkpt>
      <trkpt lat="44.04722" lon="7.19828">
        <ele>1849</ele>
        <time>2015-11-02T00:32:14Z</time>
      </trkpt>
      <trkpt lat="44.04734" lon="7.19845">
        <ele>1859</ele>
        <time>2015-11-02T00:34:14Z</time>
      </trkpt>
      <trkpt lat="44.04719" lon="7.19856">
        <ele>1857</ele>
        <time>2015-11-02T00:36:14Z</time>
      </trkpt>
      <trkpt lat="44.04685" lon="7.19942">
        <ele>1866</ele>
        <time>2015-11-02T00:38:14Z</time>
      </trkpt>
      <trkpt lat="44.04657" lon="7.20038">
        <ele>1874</ele>
        <time>2015-11-02T00:40:14Z</time>
      </trkpt>
      <trkpt lat="44.04671" lon="7.20105">
        <ele>1891</ele>
        <time>2015-11-02T00:42:14Z</time>
      </trkpt>
      <trkpt lat="44.04673" lon="7.20143">
        <ele>1895</ele>
        <time>2015-11-02T00:44:14Z</time>
      </trkpt>
      <trkpt lat="44.04654" lon="7.20171">
        <ele>1896</ele>
        <time>2015-11-02T00:46:14Z</time>
      </trkpt>
      <trkpt lat="44.04706" lon="7.20158">
        <ele>1894</ele>
        <time>2015-11-02T00:48:14Z</time>
      </trkpt>
      <trkpt lat="44.04686" lon="7.20197">
        <ele>1905</ele>
        <time>2015-11-02T00:50:14Z</time>
      </trkpt>
      <trkpt lat="44.04637" lon="7.20236">
        <ele>1914</ele>
        <time>2015-11-02T00:52:14Z</time>
      </trkpt>
      <trkpt lat="44.04603" lon="7.20287">
        <ele>1925</ele>
        <time>2015-11-02T00:54:14Z</time>
      </trkpt>
      <trkpt lat="44.04565" lon="7.20337">
        <ele>1931</ele>
        <time>2015-11-02T00:56:14Z</time>
      </trkpt>
      <trkpt lat="44.04592" lon="7.20334">
        <ele>1940</ele>
        <time>2015-11-02T00:58:14Z</time>
      </trkpt>
      <trkpt lat="44.04572" lon="7.20382">
        <ele>1950</ele>
        <time>2015-11-02T01:00:14Z</time>
      </trkpt>
      <trkpt lat="44.04599" lon="7.20377">
        <ele>1957</ele>
        <time>2015-11-02T01:02:14Z</time>
      </trkpt>
      <trkpt lat="44.0458" lon="7.20452">
        <ele>1979</ele>
        <time>2015-11-02T01:04:14Z</time>
      </trkpt>
      <trkpt lat="44.046" lon="7.20444">
        <ele>1982</ele>
        <time>2015-11-02T01:06:14Z</time>
      </trkpt>
      <trkpt lat="44.04592" lon="7.20465">
        <ele>1988</ele>
        <time>2015-11-02T01:08:14Z</time>
      </trkpt>
      <trkpt lat="44.04609" lon="7.20465">
        <ele>1994</ele>
        <time>2015-11-02T01:10:14Z</time>
      </trkpt>
      <trkpt lat="44.04571" lon="7.20521">
        <ele>2002</ele>
        <time>2015-11-02T01:12:14Z</time>
      </trkpt>
      <trkpt lat="44.04606" lon="7.20517">
        <ele>2013</ele>
        <time>2015-11-02T01:14:14Z</time>
      </trkpt>
      <trkpt lat="44.04585" lon="7.20553">
        <ele>2017</ele>
        <time>2015-11-02T01:16:14Z</time>
      </trkpt>
      <trkpt lat="44.04574" lon="7.20588">
        <ele>2026</ele>
        <time>2015-11-02T01:18:14Z</time>
      </trkpt>
      <trkpt lat="44.04631" lon="7.20577">
        <ele>2039</ele>
        <time>2015-11-02T01:20:14Z</time>
      </trkpt>
      <trkpt lat="44.04602" lon="7.20648">
        <ele>2053</ele>
        <time>2015-11-02T01:22:14Z</time>
      </trkpt>
      <trkpt lat="44.04554" lon="7.2071">
        <ele>2058</ele>
        <time>2015-11-02T01:24:14Z</time>
      </trkpt>
      <trkpt lat="44.04611" lon="7.20697">
        <ele>2060</ele>
        <time>2015-11-02T01:26:14Z</time>
      </trkpt>
      <trkpt lat="44.04656" lon="7.20661">
        <ele>2067</ele>
        <time>2015-11-02T01:28:14Z</time>
      </trkpt>
      <trkpt lat="44.04682" lon="7.20688">
        <ele>2058</ele>
        <time>2015-11-02T01:30:14Z</time>
      </trkpt>
      <trkpt lat="44.0466" lon="7.20666">
        <ele>2069</ele>
        <time>2015-11-02T01:32:14Z</time>
      </trkpt>
      <trkpt lat="44.04651" lon="7.20664">
        <ele>2067</ele>
        <time>2015-11-02T01:34:14Z</time>
      </trkpt>
      <trkpt lat="44.04607" lon="7.207">
        <ele>2060</ele>
        <time>2015-11-02T01:36:14Z</time>
      </trkpt>
      <trkpt lat="44.0456" lon="7.20709">
        <ele>2058</ele>
        <time>2015-11-02T01:38:14Z</time>
      </trkpt>
      <trkpt lat="44.04558" lon="7.20702">
        <ele>2057</ele>
        <time>2015-11-02T01:40:14Z</time>
      </trkpt>
      <trkpt lat="44.04604" lon="7.20643">
        <ele>2052</ele>
        <time>2015-11-02T01:42:14Z</time>
      </trkpt>
      <trkpt lat="44.0463" lon="7.20582">
        <ele>2040</ele>
        <time>2015-11-02T01:44:14Z</time>
      </trkpt>
      <trkpt lat="44.04626" lon="7.20577">
        <ele>2037</ele>
        <time>2015-11-02T01:46:14Z</time>
      </trkpt>
      <trkpt lat="44.04578" lon="7.20586">
        <ele>2026</ele>
        <time>2015-11-02T01:48:14Z</time>
      </trkpt>
      <trkpt lat="44.04575" lon="7.20581">
        <ele>2023</ele>
        <time>2015-11-02T01:50:14Z</time>
      </trkpt>
      <trkpt lat="44.04588" lon="7.20549">
        <ele>2017</ele>
        <time>2015-11-02T01:52:14Z</time>
      </trkpt>
      <trkpt lat="44.04604" lon="7.20522">
        <ele>2014</ele>
        <time>2015-11-02T01:54:14Z</time>
      </trkpt>
      <trkpt lat="44.04601" lon="7.20518">
        <ele>2012</ele>
        <time>2015-11-02T01:56:14Z</time>
      </trkpt>
      <trkpt lat="44.04575" lon="7.20521">
        <ele>2004</ele>
        <time>2015-11-02T01:58:14Z</time>
      </trkpt>
      <trkpt lat="44.04574" lon="7.20515">
        <ele>2001</ele>
        <time>2015-11-02T02:00:14Z</time>
      </trkpt>
      <trkpt lat="44.04607" lon="7.20469">
        <ele>1995</ele>
        <time>2015-11-02T02:02:14Z</time>
      </trkpt>
      <trkpt lat="44.04606" lon="7.20465">
        <ele>1993</ele>
        <time>2015-11-02T02:04:14Z</time>
      </trkpt>
      <trkpt lat="44.04595" lon="7.20465">
        <ele>1989</ele>
        <time>2015-11-02T02:06:14Z</time>
      </trkpt>
      <trkpt lat="44.04594" lon="7.2046">
        <ele>1987</ele>
        <time>2015-11-02T02:08:14Z</time>
      </trkpt>
      <trkpt lat="44.04599" lon="7.2045">
        <ele>1984</ele>
        <time>2015-11-02T02:10:14Z</time>
      </trkpt>
      <trkpt lat="44.04596" lon="7.20445">
        <ele>1981</ele>
        <time>2015-11-02T02:12:14Z</time>
      </trkpt>
      <trkpt lat="44.04584" lon="7.20451">
        <ele>1980</ele>
        <time>2015-11-02T02:14:14Z</time>
      </trkpt>
      <trkpt lat="44.04581" lon="7.20447">
        <ele>1977</ele>
        <time>2015-11-02T02:16:14Z</time>
      </trkpt>
      <trkpt lat="44.04597" lon="7.20381">
        <ele>1958</ele>
        <time>2015-11-02T02:18:14Z</time>
      </trkpt>
      <trkpt lat="44.04596" lon="7.20376">
        <ele>1956</ele>
        <time>2015-11-02T02:20:14Z</time>
      </trkpt>
      <trkpt lat="44.04577" lon="7.20381">
        <ele>1951</ele>
        <time>2015-11-02T02:22:14Z</time>
      </trkpt>
      <trkpt lat="44.04575" lon="7.20375">
        <ele>1949</ele>
        <time>2015-11-02T02:24:14Z</time>
      </trkpt>
      <trkpt lat="44.0459" lon="7.20339">
        <ele>1942</ele>
        <time>2015-11-02T02:26:14Z</time>
      </trkpt>
      <trkpt lat="44.04588" lon="7.20334">
        <ele>1939</ele>
        <time>2015-11-02T02:28:14Z</time>
      </trkpt>
      <trkpt lat="44.04568" lon="7.20335">
        <ele>1932</ele>
        <time>2015-11-02T02:30:14Z</time>
      </trkpt>
      <trkpt lat="44.04569" lon="7.2033">
        <ele>1931</ele>
        <time>2015-11-02T02:32:14Z</time>
      </trkpt>
      <trkpt lat="44.04605" lon="7.20282">
        <ele>1924</ele>
        <time>2015-11-02T02:34:14Z</time>
      </trkpt>
      <trkpt lat="44.04642" lon="7.20232">
        <ele>1914</ele>
        <time>2015-11-02T02:36:14Z</time>
      </trkpt>
      <trkpt lat="44.04684" lon="7.202">
        <ele>1906</ele>
        <time>2015-11-02T02:38:14Z</time>
      </trkpt>
      <trkpt lat="44.04689" lon="7.20192">
        <ele>1903</ele>
        <time>2015-11-02T02:40:14Z</time>
      </trkpt>
      <trkpt lat="44.04705" lon="7.20164">
        <ele>1894</ele>
        <time>2015-11-02T02:42:14Z</time>
      </trkpt>
      <trkpt lat="44.04711" lon="7.20148">
        <ele>1893</ele>
        <time>2015-11-02T02:44:14Z</time>
      </trkpt>
      <trkpt lat="44.04718" lon="7.20113">
        <ele>1892</ele>
        <time>2015-11-02T02:46:14Z</time>
      </trkpt>
      <trkpt lat="44.04719" lon="7.20142">
        <ele>1892</ele>
        <time>2015-11-02T02:48:14Z</time>
      </trkpt>
      <trkpt lat="44.04718" lon="7.20175">
        <ele>1894</ele>
        <time>2015-11-02T02:50:14Z</time>
      </trkpt>
      <trkpt lat="44.04731" lon="7.2019">
        <ele>1895</ele>
        <time>2015-11-02T02:52:14Z</time>
      </trkpt>
      <trkpt lat="44.04735" lon="7.20177">
        <ele>1892</ele>
        <time>2015-11-02T02:54:14Z</time>
      </trkpt>
      <trkpt lat="44.04738" lon="7.20133">
        <ele>1891</ele>
        <time>2015-11-02T02:56:14Z</time>
      </trkpt>
      <trkpt lat="44.04757" lon="7.20185">
        <ele>1886</ele>
        <time>2015-11-02T02:58:14Z</time>
      </trkpt>
      <trkpt lat="44.04766" lon="7.20161">
        <ele>1877</ele>
        <time>2015-11-02T03:00:14Z</time>
      </trkpt>
      <trkpt lat="44.04784" lon="7.20202">
        <ele>1871</ele>
        <time>2015-11-02T03:02:14Z</time>
      </trkpt>
      <trkpt lat="44.04823" lon="7.20226">
        <ele>1850</ele>
        <time>2015-11-02T03:04:14Z</time>
      </trkpt>
      <trkpt lat="44.0487" lon="7.20311">
        <ele>1839</ele>
        <time>2015-11-02T03:06:14Z</time>
      </trkpt>
      <trkpt lat="44.04918" lon="7.20414">
        <ele>1819</ele>
        <time>2015-11-02T03:08:14Z</time>
      </trkpt>
      <trkpt lat="44.04989" lon="7.20555">
        <ele>1810</ele>
        <time>2015-11-02T03:10:14Z</time>
      </trkpt>
      <trkpt lat="44.0512" lon="7.20645">
        <ele>1777</ele>
        <time>2015-11-02T03:12:14Z</time>
      </trkpt>
      <trkpt lat="44.05188" lon="7.20753">
        <ele>1759</ele>
        <time>2015-11-02T03:14:14Z</time>
      </trkpt>
      <trkpt lat="44.05126" lon="7.20867">
        <ele>1787</ele>
        <time>2015-11-02T03:16:14Z</time>
      </trkpt>
      <trkpt lat="44.05111" lon="7.20916">
        <ele>1788</ele>
        <time>2015-11-02T03:18:14Z</time>
      </trkpt>
      <trkpt lat="44.05124" lon="7.20982">
        <ele>1763</ele>
        <time>2015-11-02T03:20:14Z</time>
      </trkpt>
      <trkpt lat="44.05114" lon="7.2103">
        <ele>1755</ele>
        <time>2015-11-02T03:22:14Z</time>
      </trkpt>
      <trkpt lat="44.05117" lon="7.2107">
        <ele>1741</ele>
        <time>2015-11-02T03:24:14Z</time>
      </trkpt>
      <trkpt lat="44.05094" lon="7.21103">
        <ele>1734</ele>
        <time>2015-11-02T03:26:14Z</time>
      </trkpt>
      <trkpt lat="44.05143" lon="7.21107">
        <ele>1730</ele>
        <time>2015-11-02T03:28:14Z</time>
      </trkpt>
      <trkpt lat="44.05111" lon="7.21145">
        <ele>1722</ele>
        <time>2015-11-02T03:30:14Z</time>
      </trkpt>
      <trkpt lat="44.05177" lon="7.21158">
        <ele>1719</ele>
        <time>2015-11-02T03:32:14Z</time>
      </trkpt>
      <trkpt lat="44.05226" lon="7.2121">
        <ele>1707</ele>
        <time>2015-11-02T03:34:14Z</time>
      </trkpt>
      <trkpt lat="44.05282" lon="7.21272">
        <ele>1711</ele>
        <time>2015-11-02T03:36:14Z</time>
      </trkpt>
      <trkpt lat="44.05302" lon="7.21388">
        <ele>1707</ele>
        <time>2015-11-02T03:38:14Z</time>
      </trkpt>
      <trkpt lat="44.05337" lon="7.21495">
        <ele>1712</ele>
        <time>2015-11-02T03:40:14Z</time>
      </trkpt>
      <trkpt lat="44.0534" lon="7.21633">
        <ele>1702</ele>
        <time>2015-11-02T03:42:14Z</time>
      </trkpt>
      <trkpt lat="44.0536" lon="7.21684">
        <ele>1695</ele>
        <time>2015-11-02T03:44:14Z</time>
      </trkpt>
      <trkpt lat="44.0545" lon="7.2168">
        <ele>1706</ele>
        <time>2015-11-02T03:46:14Z</time>
      </trkpt>
      <trkpt lat="44.05488" lon="7.21725">
        <ele>1698</ele>
        <time>2015-11-02T03:48:14Z</time>
      </trkpt>
      <trkpt lat="44.05553" lon="7.21748">
        <ele>1707</ele>
        <time>2015-11-02T03:50:14Z</time>
      </trkpt>
      <trkpt lat="44.05575" lon="7.21826">
        <ele>1689</ele>
        <time>2015-11-02T03:52:14Z</time>
      </trkpt>
      <trkpt lat="44.05638" lon="7.21858">
        <ele>1701</ele>
        <time>2015-11-02T03:54:14Z</time>
      </trkpt>
      <trkpt lat="44.05653" lon="7.21957">
        <ele>1690</ele>
        <time>2015-11-02T03:56:14Z</time>
      </trkpt>
      <trkpt lat="44.0561" lon="7.22051">
        <ele>1671</ele>
        <time>2015-11-02T03:58:14Z</time>
      </trkpt>
      <trkpt lat="44.05552" lon="7.22225">
        <ele>1661</ele>
        <time>2015-11-02T04:00:14Z</time>
      </trkpt>
      <trkpt lat="44.05476" lon="7.22373">
        <ele>1633</ele>
        <time>2015-11-02T04:02:14Z</time>
      </trkpt>
      <trkpt lat="44.0549" lon="7.2242">
        <ele>1639</ele>
        <time>2015-11-02T04:04:14Z</time>
      </trkpt>
      <trkpt lat="44.05479" lon="7.22442">
        <ele>1631</ele>
        <time>2015-11-02T04:06:14Z</time>
      </trkpt>
      <trkpt lat="44.0553" lon="7.22457">
        <ele>1637</ele>
        <time>2015-11-02T04:08:14Z</time>
      </trkpt>
      <trkpt lat="44.05584" lon="7.2251">
        <ele>1625</ele>
        <time>2015-11-02T04:10:14Z</time>
      </trkpt>
      <trkpt lat="44.05641" lon="7.22609">
        <ele>1614</ele>
        <time>2015-11-02T04:12:14Z</time>
      </trkpt>
      <trkpt lat="44.05666" lon="7.2266">
        <ele>1609</ele>
        <time>2015-11-02T04:14:14Z</time>
      </trkpt>
      <trkpt lat="44.05726" lon="7.22673">
        <ele>1617</ele>
        <time>2015-11-02T04:16:14Z</time>
      </trkpt>
      <trkpt lat="44.05783" lon="7.22712">
        <ele>1618</ele>
        <time>2015-11-02T04:18:14Z</time>
      </trkpt>
      <trkpt lat="44.05814" lon="7.22714">
        <ele>1626</ele>
        <time>2015-11-02T04:20:14Z</time>
      </trkpt>
      <trkpt lat="44.05828" lon="7.22746">
        <ele>1619</ele>
        <time>2015-11-02T04:22:14Z</time>
      </trkpt>
      <trkpt lat="44.05922" lon="7.22811">
        <ele>1624</ele>
        <time>2015-11-02T04:24:14Z</time>
      </trkpt>
      <trkpt lat="44.05969" lon="7.22862">
        <ele>1621</ele>
        <time>2015-11-02T04:26:14Z</time>
      </trkpt>
      <trkpt lat="44.06048" lon="7.22845">
        <ele>1639</ele>
        <time>2015-11-02T04:28:14Z</time>
      </trkpt>
      <trkpt lat="44.06056" lon="7.2271">
        <ele>1632</ele>
        <time>2015-11-02T04:30:14Z</time>
      </trkpt>
      <trkpt lat="44.06047" lon="7.22602">
        <ele>1623</ele>
        <time>2015-11-02T04:32:14Z</time>
      </trkpt>
      <trkpt lat="44.06073" lon="7.22489">
        <ele>1607</ele>
        <time>2015-11-02T04:34:14Z</time>
      </trkpt>
      <trkpt lat="44.06073" lon="7.22405">
        <ele>1607</ele>
        <time>2015-11-02T04:36:14Z</time>
      </trkpt>
      <trkpt lat="44.06124" lon="7.22276">
        <ele>1605</ele>
        <time>2015-11-02T04:38:14Z</time>
      </trkpt>
      <trkpt lat="44.06224" lon="7.22246">
        <ele>1582</ele>
        <time>2015-11-02T04:40:14Z</time>
      </trkpt>
      <trkpt lat="44.0627" lon="7.22169">
        <ele>1570</ele>
        <time>2015-11-02T04:42:14Z</time>
      </trkpt>
      <trkpt lat="44.0631" lon="7.2213">
        <ele>1559</ele>
        <time>2015-11-02T04:44:14Z</time>
      </trkpt>
      <trkpt lat="44.06353" lon="7.22049">
        <ele>1570</ele>
        <time>2015-11-02T04:46:14Z</time>
      </trkpt>
      <trkpt lat="44.06429" lon="7.22109">
        <ele>1570</ele>
        <time>2015-11-02T04:48:14Z</time>
      </trkpt>
      <trkpt lat="44.06483" lon="7.22117">
        <ele>1582</ele>
        <time>2015-11-02T04:50:14Z</time>
      </trkpt>
      <trkpt lat="44.06546" lon="7.22079">
        <ele>1588</ele>
        <time>2015-11-02T04:52:14Z</time>
      </trkpt>
      <trkpt lat="44.06605" lon="7.22087">
        <ele>1598</ele>
        <time>2015-11-02T04:54:14Z</time>
      </trkpt>
      <trkpt lat="44.0667" lon="7.22034">
        <ele>1596</ele>
        <time>2015-11-02T04:56:14Z</time>
      </trkpt>
      <trkpt lat="44.06751" lon="7.21991">
        <ele>1604</ele>
        <time>2015-11-02T04:58:14Z</time>
      </trkpt>
      <trkpt lat="44.06827" lon="7.21948">
        <ele>1598</ele>
        <time>2015-11-02T05:00:14Z</time>
      </trkpt>
      <trkpt lat="44.06899" lon="7.21916">
        <ele>1584</ele>
        <time>2015-11-02T05:02:14Z</time>
      </trkpt>
      <trkpt lat="44.06972" lon="7.2186">
        <ele>1536</ele>
        <time>2015-11-02T05:04:14Z</time>
      </trkpt>
      <trkpt lat="44.07018" lon="7.21903">
        <ele>1535</ele>
        <time>2015-11-02T05:06:14Z</time>
      </trkpt>
      <trkpt lat="44.07058" lon="7.21982">
        <ele>1531</ele>
        <time>2015-11-02T05:08:14Z</time>
      </trkpt>
      <trkpt lat="44.07075" lon="7.22083">
        <ele>1522</ele>
        <time>2015-11-02T05:10:14Z</time>
      </trkpt>
      <trkpt lat="44.07069" lon="7.22169">
        <ele>1518</ele>
        <time>2015-11-02T05:12:14Z</time>
      </trkpt>
      <trkpt lat="44.07078" lon="7.22227">
        <ele>1508</ele>
        <time>2015-11-02T05:14:14Z</time>
      </trkpt>
      <trkpt lat="44.07093" lon="7.2218">
        <ele>1509</ele>
        <time>2015-11-02T05:16:14Z</time>
      </trkpt>
      <trkpt lat="44.07104" lon="7.2212">
        <ele>1512</ele>
        <time>2015-11-02T05:18:14Z</time>
      </trkpt>
      <trkpt lat="44.07155" lon="7.22072">
        <ele>1504</ele>
        <time>2015-11-02T05:20:14Z</time>
      </trkpt>
    </trkseg>
  </trk>
</gpx>